sensor_id;sensor_type;location;lat;lon;timestamp;temperature;humidity
51765;DHT22;37835;53.256;6.456;2023-09-19T00:00:22;14.90;99.90
51765;DHT22;37835;53.256;6.456;2023-09-19T00:02:58;14.90;99.90
51765;DHT22;37835;53.256;6.456;2023-09-19T00:05:28;14.80;99.90
51765;DHT22;37835;53.256;6.456;2023-09-19T00:07:56;14.80;99.90
51765;DHT22;37835;53.256;6.456;2023-09-19T00:10:27;14.70;99.90
51765;DHT22;37835;53.256;6.456;2023-09-19T00:12:57;14.70;99.90
51765;DHT22;37835;53.256;6.456;2023-09-19T00:15:25;14.80;99.90
51765;DHT22;37835;53.256;6.456;2023-09-19T00:17:54;14.70;99.90
51765;DHT22;37835;53.256;6.456;2023-09-19T00:20:20;14.60;99.90
51765;DHT22;37835;53.256;6.456;2023-09-19T00:22:48;14.60;99.90
51765;DHT22;37835;53.256;6.456;2023-09-19T00:25:14;14.60;99.90
51765;DHT22;37835;53.256;6.456;2023-09-19T00:27:41;14.60;99.90
51765;DHT22;37835;53.256;6.456;2023-09-19T00:30:12;14.60;99.90
51765;DHT22;37835;53.256;6.456;2023-09-19T00:32:47;14.60;99.90
51765;DHT22;37835;53.256;6.456;2023-09-19T00:35:14;14.50;99.90
51765;DHT22;37835;53.256;6.456;2023-09-19T00:37:42;14.60;99.90
51765;DHT22;37835;53.256;6.456;2023-09-19T00:40:09;14.60;99.90
51765;DHT22;37835;53.256;6.456;2023-09-19T00:42:43;14.60;99.90
51765;DHT22;37835;53.256;6.456;2023-09-19T00:45:10;14.60;99.90
51765;DHT22;37835;53.256;6.456;2023-09-19T00:47:41;14.60;99.90
51765;DHT22;37835;53.256;6.456;2023-09-19T00:50:08;14.60;99.90
51765;DHT22;37835;53.256;6.456;2023-09-19T00:52:35;14.50;99.90
51765;DHT22;37835;53.256;6.456;2023-09-19T00:55:11;14.50;99.90
51765;DHT22;37835;53.256;6.456;2023-09-19T00:57:39;14.50;99.90
51765;DHT22;37835;53.256;6.456;2023-09-19T01:00:06;14.50;99.90
51765;DHT22;37835;53.256;6.456;2023-09-19T01:02:34;14.50;99.90
51765;DHT22;37835;53.256;6.456;2023-09-19T01:05:00;14.40;99.90
51765;DHT22;37835;53.256;6.456;2023-09-19T01:07:27;14.40;99.90
51765;DHT22;37835;53.256;6.456;2023-09-19T01:09:58;14.40;99.90
51765;DHT22;37835;53.256;6.456;2023-09-19T01:15:17;14.40;99.90
51765;DHT22;37835;53.256;6.456;2023-09-19T01:17:52;14.30;99.90
51765;DHT22;37835;53.256;6.456;2023-09-19T01:20:27;14.30;99.90
51765;DHT22;37835;53.256;6.456;2023-09-19T01:29:06;14.20;99.90
51765;DHT22;37835;53.256;6.456;2023-09-19T01:31:40;14.20;99.90
51765;DHT22;37835;53.256;6.456;2023-09-19T01:34:08;14.10;99.90
51765;DHT22;37835;53.256;6.456;2023-09-19T01:36:36;14.10;99.90
51765;DHT22;37835;53.256;6.456;2023-09-19T01:39:04;14.00;99.90
51765;DHT22;37835;53.256;6.456;2023-09-19T01:41:54;14.00;99.90
51765;DHT22;37835;53.256;6.456;2023-09-19T01:44:44;14.00;99.90
51765;DHT22;37835;53.256;6.456;2023-09-19T01:47:26;13.90;99.90
51765;DHT22;37835;53.256;6.456;2023-09-19T01:52:30;13.90;99.90
51765;DHT22;37835;53.256;6.456;2023-09-19T01:55:06;13.90;99.90
51765;DHT22;37835;53.256;6.456;2023-09-19T01:57:48;13.80;99.90
51765;DHT22;37835;53.256;6.456;2023-09-19T02:00:15;13.80;99.90
51765;DHT22;37835;53.256;6.456;2023-09-19T02:02:45;13.70;99.90
51765;DHT22;37835;53.256;6.456;2023-09-19T02:05:12;13.70;99.90
51765;DHT22;37835;53.256;6.456;2023-09-19T02:07:38;13.70;99.90
51765;DHT22;37835;53.256;6.456;2023-09-19T02:10:05;13.70;99.90
51765;DHT22;37835;53.256;6.456;2023-09-19T02:12:31;13.70;99.90
51765;DHT22;37835;53.256;6.456;2023-09-19T02:14:58;13.60;99.90
51765;DHT22;37835;53.256;6.456;2023-09-19T02:17:25;13.60;99.90
51765;DHT22;37835;53.256;6.456;2023-09-19T02:19:55;13.60;99.90
51765;DHT22;37835;53.256;6.456;2023-09-19T02:22:21;13.60;99.90
51765;DHT22;37835;53.256;6.456;2023-09-19T02:24:48;13.50;99.90
51765;DHT22;37835;53.256;6.456;2023-09-19T02:27:14;13.50;99.90
51765;DHT22;37835;53.256;6.456;2023-09-19T02:29:41;13.50;99.90
51765;DHT22;37835;53.256;6.456;2023-09-19T02:32:07;13.50;99.90
51765;DHT22;37835;53.256;6.456;2023-09-19T02:34:35;13.50;99.90
51765;DHT22;37835;53.256;6.456;2023-09-19T02:37:07;13.40;99.90
51765;DHT22;37835;53.256;6.456;2023-09-19T02:39:38;13.40;99.90
51765;DHT22;37835;53.256;6.456;2023-09-19T02:42:04;13.40;99.90
51765;DHT22;37835;53.256;6.456;2023-09-19T02:44:30;13.40;99.90
51765;DHT22;37835;53.256;6.456;2023-09-19T02:46:55;13.30;99.90
51765;DHT22;37835;53.256;6.456;2023-09-19T02:49:22;13.30;99.90
51765;DHT22;37835;53.256;6.456;2023-09-19T02:51:48;13.30;99.90
51765;DHT22;37835;53.256;6.456;2023-09-19T02:54:14;13.30;99.90
51765;DHT22;37835;53.256;6.456;2023-09-19T02:56:41;13.30;99.90
51765;DHT22;37835;53.256;6.456;2023-09-19T02:59:07;13.30;99.90
51765;DHT22;37835;53.256;6.456;2023-09-19T03:01:35;13.30;99.90
51765;DHT22;37835;53.256;6.456;2023-09-19T03:04:01;13.30;99.90
51765;DHT22;37835;53.256;6.456;2023-09-19T03:06:27;13.30;99.90
51765;DHT22;37835;53.256;6.456;2023-09-19T03:08:56;13.30;99.90
51765;DHT22;37835;53.256;6.456;2023-09-19T03:11:22;13.30;99.90
51765;DHT22;37835;53.256;6.456;2023-09-19T03:13:54;13.30;99.90
51765;DHT22;37835;53.256;6.456;2023-09-19T03:16:20;13.30;99.90
51765;DHT22;37835;53.256;6.456;2023-09-19T03:18:48;13.30;99.90
51765;DHT22;37835;53.256;6.456;2023-09-19T03:21:17;13.30;99.90
51765;DHT22;37835;53.256;6.456;2023-09-19T03:23:44;13.30;99.90
51765;DHT22;37835;53.256;6.456;2023-09-19T03:26:11;13.30;99.90
51765;DHT22;37835;53.256;6.456;2023-09-19T03:28:38;13.20;99.90
51765;DHT22;37835;53.256;6.456;2023-09-19T03:31:05;13.20;99.90
51765;DHT22;37835;53.256;6.456;2023-09-19T03:33:31;13.20;99.90
51765;DHT22;37835;53.256;6.456;2023-09-19T03:35:58;13.20;99.90
51765;DHT22;37835;53.256;6.456;2023-09-19T03:38:27;13.20;99.90
51765;DHT22;37835;53.256;6.456;2023-09-19T03:40:54;13.20;99.90
51765;DHT22;37835;53.256;6.456;2023-09-19T03:43:20;13.10;99.90
51765;DHT22;37835;53.256;6.456;2023-09-19T03:45:45;13.20;99.90
51765;DHT22;37835;53.256;6.456;2023-09-19T03:48:12;13.10;99.90
51765;DHT22;37835;53.256;6.456;2023-09-19T03:50:38;13.10;99.90
51765;DHT22;37835;53.256;6.456;2023-09-19T03:53:04;13.10;99.90
51765;DHT22;37835;53.256;6.456;2023-09-19T03:55:30;13.10;99.90
51765;DHT22;37835;53.256;6.456;2023-09-19T03:57:56;13.10;99.90
51765;DHT22;37835;53.256;6.456;2023-09-19T04:00:22;13.10;99.90
51765;DHT22;37835;53.256;6.456;2023-09-19T04:02:52;13.10;99.90
51765;DHT22;37835;53.256;6.456;2023-09-19T04:05:18;13.00;99.90
51765;DHT22;37835;53.256;6.456;2023-09-19T04:07:44;13.00;99.90
51765;DHT22;37835;53.256;6.456;2023-09-19T04:10:10;13.00;99.90
51765;DHT22;37835;53.256;6.456;2023-09-19T04:12:37;13.00;99.90
51765;DHT22;37835;53.256;6.456;2023-09-19T04:15:04;13.00;99.90
51765;DHT22;37835;53.256;6.456;2023-09-19T04:17:30;12.90;99.90
51765;DHT22;37835;53.256;6.456;2023-09-19T04:19:58;12.90;99.90
51765;DHT22;37835;53.256;6.456;2023-09-19T04:22:24;12.90;99.90
51765;DHT22;37835;53.256;6.456;2023-09-19T04:24:49;12.90;99.90
51765;DHT22;37835;53.256;6.456;2023-09-19T04:27:15;12.90;99.90
51765;DHT22;37835;53.256;6.456;2023-09-19T04:29:41;12.90;99.90
51765;DHT22;37835;53.256;6.456;2023-09-19T04:32:09;12.90;99.90
51765;DHT22;37835;53.256;6.456;2023-09-19T04:34:35;12.90;99.90
51765;DHT22;37835;53.256;6.456;2023-09-19T04:37:01;12.90;99.90
51765;DHT22;37835;53.256;6.456;2023-09-19T04:39:27;13.00;99.90
51765;DHT22;37835;53.256;6.456;2023-09-19T04:41:54;12.90;99.90
51765;DHT22;37835;53.256;6.456;2023-09-19T04:44:20;13.00;99.90
51765;DHT22;37835;53.256;6.456;2023-09-19T04:46:46;12.90;99.90
51765;DHT22;37835;53.256;6.456;2023-09-19T04:49:12;13.00;99.90
51765;DHT22;37835;53.256;6.456;2023-09-19T04:51:38;13.00;99.90
51765;DHT22;37835;53.256;6.456;2023-09-19T04:54:05;13.00;99.90
51765;DHT22;37835;53.256;6.456;2023-09-19T04:56:31;13.00;99.90
51765;DHT22;37835;53.256;6.456;2023-09-19T04:58:58;13.00;99.90
51765;DHT22;37835;53.256;6.456;2023-09-19T05:01:24;13.00;99.90
51765;DHT22;37835;53.256;6.456;2023-09-19T05:03:50;13.00;99.90
51765;DHT22;37835;53.256;6.456;2023-09-19T05:06:22;13.00;99.90
51765;DHT22;37835;53.256;6.456;2023-09-19T05:08:48;13.00;99.90
51765;DHT22;37835;53.256;6.456;2023-09-19T05:11:21;13.00;99.90
51765;DHT22;37835;53.256;6.456;2023-09-19T05:13:48;13.10;99.90
51765;DHT22;37835;53.256;6.456;2023-09-19T05:16:15;13.10;99.90
51765;DHT22;37835;53.256;6.456;2023-09-19T05:18:41;13.10;99.90
51765;DHT22;37835;53.256;6.456;2023-09-19T05:21:07;13.10;99.90
51765;DHT22;37835;53.256;6.456;2023-09-19T05:23:33;13.10;99.90
51765;DHT22;37835;53.256;6.456;2023-09-19T05:25:59;13.10;99.90
51765;DHT22;37835;53.256;6.456;2023-09-19T05:28:25;13.10;99.90
51765;DHT22;37835;53.256;6.456;2023-09-19T05:30:52;13.20;99.90
51765;DHT22;37835;53.256;6.456;2023-09-19T05:33:18;13.20;99.90
51765;DHT22;37835;53.256;6.456;2023-09-19T05:35:44;13.20;99.90
51765;DHT22;37835;53.256;6.456;2023-09-19T05:38:12;13.20;99.90
51765;DHT22;37835;53.256;6.456;2023-09-19T05:40:39;13.20;99.90
51765;DHT22;37835;53.256;6.456;2023-09-19T05:43:08;13.20;99.90
51765;DHT22;37835;53.256;6.456;2023-09-19T05:45:34;13.30;99.90
51765;DHT22;37835;53.256;6.456;2023-09-19T05:48:14;13.30;99.90
51765;DHT22;37835;53.256;6.456;2023-09-19T05:50:41;13.30;99.90
51765;DHT22;37835;53.256;6.456;2023-09-19T05:53:07;13.30;99.90
51765;DHT22;37835;53.256;6.456;2023-09-19T05:55:33;13.30;99.90
51765;DHT22;37835;53.256;6.456;2023-09-19T05:57:59;13.40;99.90
51765;DHT22;37835;53.256;6.456;2023-09-19T06:00:25;13.40;99.90
51765;DHT22;37835;53.256;6.456;2023-09-19T06:02:53;13.40;99.90
51765;DHT22;37835;53.256;6.456;2023-09-19T06:05:19;13.40;99.90
51765;DHT22;37835;53.256;6.456;2023-09-19T06:07:45;13.40;99.90
51765;DHT22;37835;53.256;6.456;2023-09-19T06:10:12;13.40;99.90
51765;DHT22;37835;53.256;6.456;2023-09-19T06:12:38;13.40;99.90
51765;DHT22;37835;53.256;6.456;2023-09-19T06:15:05;13.50;99.90
51765;DHT22;37835;53.256;6.456;2023-09-19T06:17:31;13.50;99.90
51765;DHT22;37835;53.256;6.456;2023-09-19T06:19:57;13.50;99.90
51765;DHT22;37835;53.256;6.456;2023-09-19T06:22:22;13.50;99.90
51765;DHT22;37835;53.256;6.456;2023-09-19T06:24:49;13.50;99.90
51765;DHT22;37835;53.256;6.456;2023-09-19T06:27:15;13.50;99.90
51765;DHT22;37835;53.256;6.456;2023-09-19T06:29:40;13.60;99.90
51765;DHT22;37835;53.256;6.456;2023-09-19T06:32:08;13.60;99.90
51765;DHT22;37835;53.256;6.456;2023-09-19T06:34:34;13.60;99.90
51765;DHT22;37835;53.256;6.456;2023-09-19T06:36:59;13.60;99.90
51765;DHT22;37835;53.256;6.456;2023-09-19T06:39:25;13.70;99.90
51765;DHT22;37835;53.256;6.456;2023-09-19T06:41:52;13.70;99.90
51765;DHT22;37835;53.256;6.456;2023-09-19T06:44:19;13.70;99.90
51765;DHT22;37835;53.256;6.456;2023-09-19T06:46:47;13.70;99.90
51765;DHT22;37835;53.256;6.456;2023-09-19T06:49:17;13.80;99.90
51765;DHT22;37835;53.256;6.456;2023-09-19T06:51:42;13.80;99.90
51765;DHT22;37835;53.256;6.456;2023-09-19T06:54:09;13.80;99.90
51765;DHT22;37835;53.256;6.456;2023-09-19T06:56:35;13.80;99.90
51765;DHT22;37835;53.256;6.456;2023-09-19T06:59:00;13.80;99.90
51765;DHT22;37835;53.256;6.456;2023-09-19T07:01:28;13.90;99.90
51765;DHT22;37835;53.256;6.456;2023-09-19T07:03:53;13.90;99.90
51765;DHT22;37835;53.256;6.456;2023-09-19T07:06:20;13.30;99.90
51765;DHT22;37835;53.256;6.456;2023-09-19T07:08:45;14.00;99.90
51765;DHT22;37835;53.256;6.456;2023-09-19T07:11:11;14.00;99.90
51765;DHT22;37835;53.256;6.456;2023-09-19T07:13:38;14.00;99.90
51765;DHT22;37835;53.256;6.456;2023-09-19T07:16:04;14.00;99.90
51765;DHT22;37835;53.256;6.456;2023-09-19T07:18:30;14.10;99.90
51765;DHT22;37835;53.256;6.456;2023-09-19T07:20:57;14.10;99.90
51765;DHT22;37835;53.256;6.456;2023-09-19T07:23:26;14.20;99.90
51765;DHT22;37835;53.256;6.456;2023-09-19T07:25:52;14.20;99.90
51765;DHT22;37835;53.256;6.456;2023-09-19T07:28:22;14.30;99.90
51765;DHT22;37835;53.256;6.456;2023-09-19T07:30:48;14.30;99.90
51765;DHT22;37835;53.256;6.456;2023-09-19T07:33:13;14.30;99.90
51765;DHT22;37835;53.256;6.456;2023-09-19T07:35:40;14.40;99.90
51765;DHT22;37835;53.256;6.456;2023-09-19T07:38:06;14.40;99.90
51765;DHT22;37835;53.256;6.456;2023-09-19T07:40:31;14.40;99.90
51765;DHT22;37835;53.256;6.456;2023-09-19T07:42:57;14.40;99.90
51765;DHT22;37835;53.256;6.456;2023-09-19T07:45:30;14.50;99.90
51765;DHT22;37835;53.256;6.456;2023-09-19T07:47:56;14.50;99.90
51765;DHT22;37835;53.256;6.456;2023-09-19T07:50:23;14.60;99.90
51765;DHT22;37835;53.256;6.456;2023-09-19T07:52:49;14.70;99.90
51765;DHT22;37835;53.256;6.456;2023-09-19T07:55:19;14.70;99.90
51765;DHT22;37835;53.256;6.456;2023-09-19T07:57:46;14.70;99.90
51765;DHT22;37835;53.256;6.456;2023-09-19T08:00:12;14.80;99.90
51765;DHT22;37835;53.256;6.456;2023-09-19T08:02:39;14.80;99.90
51765;DHT22;37835;53.256;6.456;2023-09-19T08:05:06;14.90;99.90
51765;DHT22;37835;53.256;6.456;2023-09-19T08:07:36;14.90;99.90
51765;DHT22;37835;53.256;6.456;2023-09-19T08:10:04;15.00;99.90
51765;DHT22;37835;53.256;6.456;2023-09-19T08:12:36;15.00;99.90
51765;DHT22;37835;53.256;6.456;2023-09-19T08:15:02;15.10;99.90
51765;DHT22;37835;53.256;6.456;2023-09-19T08:17:28;15.10;99.90
51765;DHT22;37835;53.256;6.456;2023-09-19T08:19:54;15.20;99.90
51765;DHT22;37835;53.256;6.456;2023-09-19T08:22:20;15.30;99.90
51765;DHT22;37835;53.256;6.456;2023-09-19T08:24:47;15.30;99.90
51765;DHT22;37835;53.256;6.456;2023-09-19T08:27:13;15.70;99.90
51765;DHT22;37835;53.256;6.456;2023-09-19T08:29:38;15.40;99.90
51765;DHT22;37835;53.256;6.456;2023-09-19T08:32:04;15.40;99.90
51765;DHT22;37835;53.256;6.456;2023-09-19T08:34:30;15.50;99.90
51765;DHT22;37835;53.256;6.456;2023-09-19T08:36:58;15.60;99.90
51765;DHT22;37835;53.256;6.456;2023-09-19T08:39:24;15.70;99.90
51765;DHT22;37835;53.256;6.456;2023-09-19T08:41:57;15.70;99.90
51765;DHT22;37835;53.256;6.456;2023-09-19T08:44:24;15.80;99.90
51765;DHT22;37835;53.256;6.456;2023-09-19T08:46:54;15.80;99.90
51765;DHT22;37835;53.256;6.456;2023-09-19T08:49:30;15.80;99.90
51765;DHT22;37835;53.256;6.456;2023-09-19T08:52:10;15.90;99.90
51765;DHT22;37835;53.256;6.456;2023-09-19T08:54:38;15.90;99.90
51765;DHT22;37835;53.256;6.456;2023-09-19T08:57:07;16.00;99.90
51765;DHT22;37835;53.256;6.456;2023-09-19T08:59:41;16.10;99.90
51765;DHT22;37835;53.256;6.456;2023-09-19T09:02:11;16.10;99.90
51765;DHT22;37835;53.256;6.456;2023-09-19T09:04:40;16.10;99.90
51765;DHT22;37835;53.256;6.456;2023-09-19T09:07:11;16.20;99.90
51765;DHT22;37835;53.256;6.456;2023-09-19T09:09:38;16.20;99.90
51765;DHT22;37835;53.256;6.456;2023-09-19T09:12:16;16.20;99.90
51765;DHT22;37835;53.256;6.456;2023-09-19T09:14:46;16.30;99.90
51765;DHT22;37835;53.256;6.456;2023-09-19T09:17:16;16.30;99.90
51765;DHT22;37835;53.256;6.456;2023-09-19T09:19:46;16.40;99.90
51765;DHT22;37835;53.256;6.456;2023-09-19T09:22:12;16.40;99.90
51765;DHT22;37835;53.256;6.456;2023-09-19T09:27:19;16.50;99.90
51765;DHT22;37835;53.256;6.456;2023-09-19T09:29:45;16.50;99.90
51765;DHT22;37835;53.256;6.456;2023-09-19T09:32:31;16.50;99.90
51765;DHT22;37835;53.256;6.456;2023-09-19T09:35:02;16.50;99.90
51765;DHT22;37835;53.256;6.456;2023-09-19T09:37:29;16.60;99.90
51765;DHT22;37835;53.256;6.456;2023-09-19T09:40:02;16.60;99.90
51765;DHT22;37835;53.256;6.456;2023-09-19T09:42:45;16.60;99.90
51765;DHT22;37835;53.256;6.456;2023-09-19T09:47:48;16.70;99.90
51765;DHT22;37835;53.256;6.456;2023-09-19T09:50:32;16.70;99.90
51765;DHT22;37835;53.256;6.456;2023-09-19T09:53:05;16.80;99.90
51765;DHT22;37835;53.256;6.456;2023-09-19T09:55:59;16.80;99.90
51765;DHT22;37835;53.256;6.456;2023-09-19T09:58:26;16.80;99.90
51765;DHT22;37835;53.256;6.456;2023-09-19T10:00:56;16.80;99.90
51765;DHT22;37835;53.256;6.456;2023-09-19T10:03:31;16.80;99.90
51765;DHT22;37835;53.256;6.456;2023-09-19T10:06:00;16.90;99.90
51765;DHT22;37835;53.256;6.456;2023-09-19T10:08:27;16.90;99.90
51765;DHT22;37835;53.256;6.456;2023-09-19T10:10:57;16.90;99.90
51765;DHT22;37835;53.256;6.456;2023-09-19T10:13:31;16.90;99.90
51765;DHT22;37835;53.256;6.456;2023-09-19T10:15:59;17.00;99.90
51765;DHT22;37835;53.256;6.456;2023-09-19T10:18:29;17.10;99.90
51765;DHT22;37835;53.256;6.456;2023-09-19T10:20:59;17.10;99.90
51765;DHT22;37835;53.256;6.456;2023-09-19T10:23:28;17.10;99.90
51765;DHT22;37835;53.256;6.456;2023-09-19T10:25:57;17.10;99.90
51765;DHT22;37835;53.256;6.456;2023-09-19T10:28:28;17.20;99.90
51765;DHT22;37835;53.256;6.456;2023-09-19T10:30:57;17.20;99.90
51765;DHT22;37835;53.256;6.456;2023-09-19T10:33:25;17.20;99.90
51765;DHT22;37835;53.256;6.456;2023-09-19T10:35:57;17.20;99.90
51765;DHT22;37835;53.256;6.456;2023-09-19T10:38:29;17.20;99.90
51765;DHT22;37835;53.256;6.456;2023-09-19T10:40:56;17.20;99.90
51765;DHT22;37835;53.256;6.456;2023-09-19T10:43:29;17.30;99.90
51765;DHT22;37835;53.256;6.456;2023-09-19T10:46:00;17.40;99.90
51765;DHT22;37835;53.256;6.456;2023-09-19T10:48:26;17.50;99.90
51765;DHT22;37835;53.256;6.456;2023-09-19T10:51:06;17.50;99.90
51765;DHT22;37835;53.256;6.456;2023-09-19T10:53:56;17.60;99.90
51765;DHT22;37835;53.256;6.456;2023-09-19T10:56:38;17.70;99.90
51765;DHT22;37835;53.256;6.456;2023-09-19T10:59:15;17.70;99.90
51765;DHT22;37835;53.256;6.456;2023-09-19T11:01:43;17.70;99.90
51765;DHT22;37835;53.256;6.456;2023-09-19T11:04:23;17.70;99.90
51765;DHT22;37835;53.256;6.456;2023-09-19T11:07:09;17.60;99.90
51765;DHT22;37835;53.256;6.456;2023-09-19T11:09:55;17.70;99.90
51765;DHT22;37835;53.256;6.456;2023-09-19T11:15:07;17.60;99.90
51765;DHT22;37835;53.256;6.456;2023-09-19T11:17:41;17.70;99.90
51765;DHT22;37835;53.256;6.456;2023-09-19T11:30:35;17.50;99.90
51765;DHT22;37835;53.256;6.456;2023-09-19T11:33:29;17.50;99.90
51765;DHT22;37835;53.256;6.456;2023-09-19T11:43:53;17.60;99.90
51765;DHT22;37835;53.256;6.456;2023-09-19T11:46:21;17.60;99.90
51765;DHT22;37835;53.256;6.456;2023-09-19T11:48:50;17.60;99.90
51765;DHT22;37835;53.256;6.456;2023-09-19T11:51:20;17.60;99.90
51765;DHT22;37835;53.256;6.456;2023-09-19T11:53:58;17.60;99.90
51765;DHT22;37835;53.256;6.456;2023-09-19T11:56:27;17.70;99.90
51765;DHT22;37835;53.256;6.456;2023-09-19T11:58:55;17.70;99.90
51765;DHT22;37835;53.256;6.456;2023-09-19T12:01:25;17.70;99.90
51765;DHT22;37835;53.256;6.456;2023-09-19T12:03:56;17.80;99.90
51765;DHT22;37835;53.256;6.456;2023-09-19T12:06:24;17.80;99.90
51765;DHT22;37835;53.256;6.456;2023-09-19T12:08:50;17.80;99.90
51765;DHT22;37835;53.256;6.456;2023-09-19T12:11:19;17.70;99.90
51765;DHT22;37835;53.256;6.456;2023-09-19T12:13:47;17.70;99.90
51765;DHT22;37835;53.256;6.456;2023-09-19T12:16:20;17.70;99.90
51765;DHT22;37835;53.256;6.456;2023-09-19T12:18:48;17.70;99.90
51765;DHT22;37835;53.256;6.456;2023-09-19T12:21:31;17.60;99.90
51765;DHT22;37835;53.256;6.456;2023-09-19T12:26:39;17.70;99.90
51765;DHT22;37835;53.256;6.456;2023-09-19T12:29:20;17.60;99.90
51765;DHT22;37835;53.256;6.456;2023-09-19T12:31:56;17.60;99.90
51765;DHT22;37835;53.256;6.456;2023-09-19T12:34:32;17.50;99.90
51765;DHT22;37835;53.256;6.456;2023-09-19T12:37:08;17.50;99.90
51765;DHT22;37835;53.256;6.456;2023-09-19T12:39:41;17.40;99.90
51765;DHT22;37835;53.256;6.456;2023-09-19T12:42:09;17.30;99.90
51765;DHT22;37835;53.256;6.456;2023-09-19T12:44:41;17.20;99.90
51765;DHT22;37835;53.256;6.456;2023-09-19T12:47:13;17.20;99.90
51765;DHT22;37835;53.256;6.456;2023-09-19T12:50:07;17.20;99.90
51765;DHT22;37835;53.256;6.456;2023-09-19T12:52:35;17.20;99.90
51765;DHT22;37835;53.256;6.456;2023-09-19T12:55:02;17.20;99.90
51765;DHT22;37835;53.256;6.456;2023-09-19T12:57:29;17.20;99.90
51765;DHT22;37835;53.256;6.456;2023-09-19T12:59:57;17.30;99.90
51765;DHT22;37835;53.256;6.456;2023-09-19T13:02:23;17.30;99.90
51765;DHT22;37835;53.256;6.456;2023-09-19T13:04:54;17.40;99.90
51765;DHT22;37835;53.256;6.456;2023-09-19T13:07:41;17.40;99.90
51765;DHT22;37835;53.256;6.456;2023-09-19T13:10:12;17.40;99.90
51765;DHT22;37835;53.256;6.456;2023-09-19T13:12:42;17.40;99.90
51765;DHT22;37835;53.256;6.456;2023-09-19T13:15:10;17.40;99.90
51765;DHT22;37835;53.256;6.456;2023-09-19T13:17:48;17.40;99.90
51765;DHT22;37835;53.256;6.456;2023-09-19T13:20:26;17.40;99.90
51765;DHT22;37835;53.256;6.456;2023-09-19T13:22:58;17.40;99.90
51765;DHT22;37835;53.256;6.456;2023-09-19T13:25:34;17.40;99.90
51765;DHT22;37835;53.256;6.456;2023-09-19T13:28:00;17.30;99.90
51765;DHT22;37835;53.256;6.456;2023-09-19T13:30:29;17.30;99.90
51765;DHT22;37835;53.256;6.456;2023-09-19T13:33:10;17.20;99.90
51765;DHT22;37835;53.256;6.456;2023-09-19T13:35:37;17.10;99.90
51765;DHT22;37835;53.256;6.456;2023-09-19T13:38:05;17.00;99.90
51765;DHT22;37835;53.256;6.456;2023-09-19T13:40:32;17.00;99.90
51765;DHT22;37835;53.256;6.456;2023-09-19T13:43:00;17.00;99.90
51765;DHT22;37835;53.256;6.456;2023-09-19T13:45:26;17.00;99.90
51765;DHT22;37835;53.256;6.456;2023-09-19T13:47:52;17.00;99.90
51765;DHT22;37835;53.256;6.456;2023-09-19T13:50:19;17.00;99.90
51765;DHT22;37835;53.256;6.456;2023-09-19T13:52:49;17.00;99.90
51765;DHT22;37835;53.256;6.456;2023-09-19T13:55:17;17.10;99.90
51765;DHT22;37835;53.256;6.456;2023-09-19T13:57:48;17.10;99.90
51765;DHT22;37835;53.256;6.456;2023-09-19T14:00:20;17.20;99.90
51765;DHT22;37835;53.256;6.456;2023-09-19T14:02:46;17.20;99.90
51765;DHT22;37835;53.256;6.456;2023-09-19T14:05:14;17.20;99.90
51765;DHT22;37835;53.256;6.456;2023-09-19T14:07:41;17.30;99.90
51765;DHT22;37835;53.256;6.456;2023-09-19T14:10:08;17.30;99.90
51765;DHT22;37835;53.256;6.456;2023-09-19T14:12:34;17.40;99.90
51765;DHT22;37835;53.256;6.456;2023-09-19T14:15:00;17.40;99.90
51765;DHT22;37835;53.256;6.456;2023-09-19T14:17:25;17.50;99.90
51765;DHT22;37835;53.256;6.456;2023-09-19T14:19:52;17.50;99.90
51765;DHT22;37835;53.256;6.456;2023-09-19T14:22:17;17.60;99.90
51765;DHT22;37835;53.256;6.456;2023-09-19T14:24:43;17.60;99.90
51765;DHT22;37835;53.256;6.456;2023-09-19T14:27:09;17.60;99.90
51765;DHT22;37835;53.256;6.456;2023-09-19T14:29:35;17.70;99.90
51765;DHT22;37835;53.256;6.456;2023-09-19T14:32:01;17.70;99.90
51765;DHT22;37835;53.256;6.456;2023-09-19T14:34:27;17.70;99.90
51765;DHT22;37835;53.256;6.456;2023-09-19T14:36:53;17.70;99.90
51765;DHT22;37835;53.256;6.456;2023-09-19T14:39:19;17.70;99.90
51765;DHT22;37835;53.256;6.456;2023-09-19T14:41:45;17.70;99.90
51765;DHT22;37835;53.256;6.456;2023-09-19T14:44:11;17.60;99.90
51765;DHT22;37835;53.256;6.456;2023-09-19T14:46:36;17.60;99.90
51765;DHT22;37835;53.256;6.456;2023-09-19T14:49:02;17.50;99.90
51765;DHT22;37835;53.256;6.456;2023-09-19T14:51:30;17.50;99.90
51765;DHT22;37835;53.256;6.456;2023-09-19T14:53:56;17.40;99.90
51765;DHT22;37835;53.256;6.456;2023-09-19T14:56:23;17.30;99.90
51765;DHT22;37835;53.256;6.456;2023-09-19T14:58:49;17.30;99.90
51765;DHT22;37835;53.256;6.456;2023-09-19T15:01:15;17.30;99.90
51765;DHT22;37835;53.256;6.456;2023-09-19T15:03:41;17.30;99.90
51765;DHT22;37835;53.256;6.456;2023-09-19T15:06:12;17.20;99.90
51765;DHT22;37835;53.256;6.456;2023-09-19T15:08:44;17.20;99.90
51765;DHT22;37835;53.256;6.456;2023-09-19T15:11:17;17.20;99.90
51765;DHT22;37835;53.256;6.456;2023-09-19T15:13:43;17.10;99.90
51765;DHT22;37835;53.256;6.456;2023-09-19T15:16:10;17.10;99.90
51765;DHT22;37835;53.256;6.456;2023-09-19T15:18:37;17.10;99.90
51765;DHT22;37835;53.256;6.456;2023-09-19T15:21:04;17.10;99.90
51765;DHT22;37835;53.256;6.456;2023-09-19T15:23:30;17.00;99.90
51765;DHT22;37835;53.256;6.456;2023-09-19T15:26:03;17.00;99.90
51765;DHT22;37835;53.256;6.456;2023-09-19T15:28:28;17.00;99.90
51765;DHT22;37835;53.256;6.456;2023-09-19T15:33:29;17.00;99.90
51765;DHT22;37835;53.256;6.456;2023-09-19T15:36:09;16.90;99.90
51765;DHT22;37835;53.256;6.456;2023-09-19T15:41:23;16.80;99.90
51765;DHT22;37835;53.256;6.456;2023-09-19T15:43:48;16.80;99.90
51765;DHT22;37835;53.256;6.456;2023-09-19T15:46:14;16.80;99.90
51765;DHT22;37835;53.256;6.456;2023-09-19T15:48:41;16.70;99.90
51765;DHT22;37835;53.256;6.456;2023-09-19T15:51:06;16.70;99.90
51765;DHT22;37835;53.256;6.456;2023-09-19T15:53:46;16.70;99.90
51765;DHT22;37835;53.256;6.456;2023-09-19T15:56:16;16.60;99.90
51765;DHT22;37835;53.256;6.456;2023-09-19T15:58:45;16.70;99.90
51765;DHT22;37835;53.256;6.456;2023-09-19T16:01:11;16.70;99.90
51765;DHT22;37835;53.256;6.456;2023-09-19T16:03:39;16.70;99.90
51765;DHT22;37835;53.256;6.456;2023-09-19T16:06:09;16.70;99.90
51765;DHT22;37835;53.256;6.456;2023-09-19T16:08:38;16.90;99.90
51765;DHT22;37835;53.256;6.456;2023-09-19T16:11:03;16.60;99.90
51765;DHT22;37835;53.256;6.456;2023-09-19T16:13:29;16.60;99.90
51765;DHT22;37835;53.256;6.456;2023-09-19T16:15:55;17.30;99.90
51765;DHT22;37835;53.256;6.456;2023-09-19T16:18:20;16.60;99.90
51765;DHT22;37835;53.256;6.456;2023-09-19T16:20:46;16.60;99.90
51765;DHT22;37835;53.256;6.456;2023-09-19T16:23:12;16.60;99.90
51765;DHT22;37835;53.256;6.456;2023-09-19T16:25:37;16.50;99.90